Time;durP1;ratioP1;P1;durP2;ratioP2;P2;SDS_P1;SDS_P2;PMS_P1;PMS_P2;Temp;Humidity;BMP_temperature;BMP_pressure;BME280_temperature;BME280_humidity;BME280_pressure;Samples;Min_cycle;Max_cycle;Signal;HPM_P1;HPM_P2
2022/05/08 05:09:56;;;;;;;4.53;1.63;;;21.40;45.90;;;;;;5075321;27;88460;-71
2022/05/08 05:12:24;;;;;;;4.80;1.50;;;21.70;46.90;;;;;;5055067;27;88319;-72
2022/05/08 05:14:52;;;;;;;5.13;1.40;;;22.10;46.70;;;;;;5057578;27;88397;-67
2022/05/08 05:17:20;;;;;;;5.00;1.20;;;22.60;46.60;;;;;;5075197;27;90623;-68
2022/05/08 05:19:48;;;;;;;2.90;1.20;;;23.00;46.40;;;;;;5068097;27;90391;-73
2022/05/08 05:22:16;;;;;;;7.43;1.40;;;23.30;46.10;;;;;;5057369;27;88525;-67
2022/05/08 05:24:44;;;;;;;2.77;1.10;;;23.60;45.90;;;;;;5057210;27;88445;-67
2022/05/08 05:27:14;;;;;;;4.23;1.40;;;23.80;45.80;;;;;;5072308;27;92809;-68
2022/05/08 05:29:42;;;;;;;3.03;0.83;;;24.00;45.70;;;;;;5058853;27;89915;-68
2022/05/08 05:32:10;;;;;;;5.13;1.20;;;24.10;45.60;;;;;;5057646;27;88404;-67
2022/05/08 05:34:38;;;;;;;3.30;0.97;;;24.20;45.50;;;;;;5056248;27;90362;-68
2022/05/08 05:37:06;;;;;;;3.47;1.10;;;24.30;45.30;;;;;;5057500;27;90234;-68
2022/05/08 05:39:34;;;;;;;3.23;0.83;;;24.40;45.30;;;;;;5054092;27;89676;-67
2022/05/08 05:42:02;;;;;;;3.27;1.23;;;24.40;45.20;;;;;;5057060;27;88417;-67
2022/05/08 05:44:31;;;;;;;3.10;1.37;;;24.40;45.10;;;;;;5055647;27;88674;-67
2022/05/08 05:49:45;;;;;;;3.43;1.33;;;24.60;45.00;;;;;;5056161;27;89947;-67
2022/05/08 05:52:13;;;;;;;2.70;1.13;;;24.60;44.90;;;;;;5057982;27;90469;-67
2022/05/08 05:54:41;;;;;;;2.67;1.20;;;24.60;44.80;;;;;;5055302;27;88551;-67
2022/05/08 05:57:09;;;;;;;5.77;1.80;;;24.70;44.80;;;;;;5056495;27;89533;-68
2022/05/08 05:59:38;;;;;;;4.30;1.57;;;24.70;44.80;;;;;;5056504;27;90028;-68
2022/05/08 06:02:07;;;;;;;5.43;1.37;;;24.70;44.70;;;;;;5055133;27;88413;-68
2022/05/08 06:04:35;;;;;;;5.00;1.93;;;24.80;44.80;;;;;;5056058;27;88589;-68
2022/05/08 06:07:04;;;;;;;2.33;1.30;;;24.80;44.80;;;;;;5057845;27;89490;-67
2022/05/08 06:09:33;;;;;;;3.70;1.67;;;24.80;44.80;;;;;;5056543;27;90919;-67
2022/05/08 06:12:01;;;;;;;1.57;1.27;;;24.80;44.70;;;;;;5055910;27;88740;-68
2022/05/08 06:14:29;;;;;;;8.77;1.77;;;24.80;44.70;;;;;;5052218;27;89427;-66
2022/05/08 06:16:58;;;;;;;3.17;1.53;;;24.80;44.70;;;;;;5056118;27;89735;-66
2022/05/08 06:19:27;;;;;;;3.93;1.60;;;24.80;44.70;;;;;;5054760;27;88878;-68
2022/05/08 06:21:55;;;;;;;5.43;1.73;;;24.80;44.60;;;;;;5041309;28;88758;-67
2022/05/08 06:24:23;;;;;;;4.00;1.53;;;24.90;44.70;;;;;;5041964;28;88603;-67
2022/05/08 06:26:51;;;;;;;4.47;1.73;;;24.90;44.70;;;;;;5041738;27;89547;-67
2022/05/08 06:29:19;;;;;;;6.33;1.73;;;24.90;44.70;;;;;;5042512;28;92933;-68
2022/05/08 06:31:48;;;;;;;8.57;1.63;;;24.90;44.70;;;;;;5042640;27;88745;-67
2022/05/08 06:34:18;;;;;;;4.73;2.03;;;24.90;44.60;;;;;;5043311;27;88427;-67
2022/05/08 06:36:46;;;;;;;7.03;2.23;;;24.90;44.60;;;;;;5040733;27;89757;-67
2022/05/08 06:39:14;;;;;;;5.23;2.23;;;24.90;44.60;;;;;;5042822;28;88872;-67
2022/05/08 06:41:43;;;;;;;5.20;2.10;;;24.90;44.50;;;;;;5057733;27;88478;-67
2022/05/08 06:44:11;;;;;;;5.30;1.93;;;24.90;44.50;;;;;;5063221;27;88445;-67
2022/05/08 06:46:41;;;;;;;3.77;1.50;;;25.00;44.60;;;;;;5057926;27;89442;-67
2022/05/08 06:49:09;;;;;;;4.40;1.77;;;24.90;44.40;;;;;;5042675;27;90073;-67
2022/05/08 06:51:38;;;;;;;4.03;2.00;;;25.00;44.50;;;;;;5042220;27;88622;-67
2022/05/08 06:54:06;;;;;;;3.40;1.70;;;25.00;44.40;;;;;;5040366;27;88175;-67
2022/05/08 06:56:36;;;;;;;7.40;1.77;;;24.90;44.40;;;;;;5041264;27;90884;-67
2022/05/08 07:01:50;;;;;;;4.47;2.40;;;25.00;44.30;;;;;;5040502;28;88474;-67
2022/05/08 07:04:18;;;;;;;4.23;2.47;;;25.00;44.30;;;;;;5041484;27;90326;-68
2022/05/08 07:06:48;;;;;;;7.67;2.80;;;25.00;44.30;;;;;;5051188;27;89544;-67
2022/05/08 07:09:16;;;;;;;7.60;3.17;;;25.00;44.20;;;;;;5041861;27;90067;-67
2022/05/08 07:11:47;;;;;;;8.03;4.47;;;25.00;44.20;;;;;;5044445;27;88391;-67
2022/05/08 07:14:15;;;;;;;8.70;5.20;;;25.00;44.20;;;;;;5052307;27;88481;-67
2022/05/08 07:16:44;;;;;;;8.83;5.20;;;24.90;44.00;;;;;;5044243;27;89663;-67
2022/05/08 07:19:12;;;;;;;14.03;6.57;;;25.00;44.10;;;;;;5041720;27;90156;-67
2022/05/08 07:21:40;;;;;;;12.87;7.23;;;25.00;44.00;;;;;;5042194;27;88441;-67
2022/05/08 07:24:09;;;;;;;12.47;6.87;;;25.00;44.00;;;;;;5042184;28;88519;-67
2022/05/08 07:26:37;;;;;;;12.17;7.23;;;25.00;43.90;;;;;;5048002;27;90756;-66
2022/05/08 07:29:06;;;;;;;14.87;7.03;;;25.00;43.90;;;;;;5057349;27;89282;-66
2022/05/08 07:31:34;;;;;;;12.50;5.73;;;25.00;43.90;;;;;;5059150;27;88657;-66
2022/05/08 07:36:50;;;;;;;8.07;4.73;;;24.90;43.40;;;;;;5046644;27;92256;-67
2022/05/08 07:39:19;;;;;;;6.03;4.53;;;24.80;43.20;;;;;;5055439;27;92156;-67
2022/05/08 07:41:47;;;;;;;9.50;5.07;;;24.70;43.10;;;;;;5056674;27;88433;-67
2022/05/08 07:44:15;;;;;;;9.23;3.40;;;24.70;43.00;;;;;;5055510;27;88623;-66
2022/05/08 07:46:43;;;;;;;7.40;3.03;;;24.60;42.80;;;;;;5057370;27;89841;-66
2022/05/08 07:49:11;;;;;;;4.70;2.93;;;24.60;42.60;;;;;;5052034;27;90398;-66
2022/05/08 07:51:39;;;;;;;7.03;2.80;;;24.50;42.40;;;;;;5048373;27;88560;-67
2022/05/08 07:54:07;;;;;;;4.97;2.80;;;24.50;42.40;;;;;;5049688;27;88693;-66
2022/05/08 07:56:37;;;;;;;11.17;2.63;;;24.40;42.20;;;;;;5054927;27;89555;-66
2022/05/08 07:59:05;;;;;;;12.00;6.20;;;24.40;42.10;;;;;;5052656;27;89277;-66
2022/05/08 08:01:33;;;;;;;28.27;19.07;;;24.40;42.00;;;;;;5059547;27;88657;-66
2022/05/08 08:04:18;;;;;;;38.40;21.30;;;24.40;41.90;;;;;;5055950;27;88535;-66
2022/05/08 08:06:46;;;;;;;29.07;17.97;;;24.40;41.70;;;;;;5050027;27;91807;-67
2022/05/08 08:09:14;;;;;;;25.00;15.27;;;24.20;41.50;;;;;;5053371;27;89364;-67
2022/05/08 08:11:43;;;;;;;27.13;13.60;;;24.20;41.50;;;;;;5049796;27;88710;-66
2022/05/08 08:14:11;;;;;;;19.10;10.63;;;24.10;41.40;;;;;;5052976;27;88612;-66
2022/05/08 08:16:59;;;;;;;18.70;10.27;;;24.10;41.90;;;;;;5052356;27;91077;-67
2022/05/08 08:19:29;;;;;;;19.97;9.73;;;24.10;41.20;;;;;;5054115;27;89897;-68
2022/05/08 08:21:59;;;;;;;13.00;8.03;;;24.10;41.20;;;;;;5051051;27;88513;-68
2022/05/08 08:24:28;;;;;;;15.53;8.33;;;24.10;41.10;;;;;;5056106;27;89180;-68
2022/05/08 08:26:58;;;;;;;10.93;7.53;;;24.00;41.00;;;;;;5051246;27;90805;-65
2022/05/08 08:29:26;;;;;;;15.43;8.27;;;24.00;41.00;;;;;;5054032;27;89416;-68
2022/05/08 08:31:54;;;;;;;14.53;8.20;;;24.00;41.50;;;;;;5054560;27;88560;-67
2022/05/08 08:34:22;;;;;;;10.73;6.33;;;24.00;40.80;;;;;;5055533;27;88612;-67
2022/05/08 08:36:53;;;;;;;9.97;4.53;;;24.00;40.80;;;;;;5056524;27;89710;-67
2022/05/08 08:39:22;;;;;;;9.27;5.23;;;23.90;40.70;;;;;;5047501;27;88864;-67
2022/05/08 08:41:59;;;;;;;9.90;5.33;;;23.80;40.60;;;;;;5057583;27;88563;-67
2022/05/08 08:50:00;;;;;;;8.77;3.00;;;23.60;40.50;;;;;;5054728;27;89869;-67
2022/05/08 08:52:28;;;;;;;10.20;4.30;;;23.50;40.40;;;;;;5048607;27;88383;-67
2022/05/08 08:54:57;;;;;;;9.07;4.43;;;23.50;40.40;;;;;;5040175;27;88603;-67
2022/05/08 08:57:25;;;;;;;4.60;3.23;;;23.50;40.40;;;;;;5040272;27;90608;-67
2022/05/08 08:59:54;;;;;;;11.07;3.33;;;23.50;40.30;;;;;;5048619;27;90984;-67
2022/05/08 09:02:23;;;;;;;8.70;4.10;;;23.50;40.30;;;;;;5049617;27;88404;-67
2022/05/08 09:04:54;;;;;;;7.63;4.10;;;23.50;40.30;;;;;;5053917;27;88751;-67
2022/05/08 09:07:41;;;;;;;9.13;4.50;;;23.60;40.30;;;;;;5056696;27;90638;-68
2022/05/08 09:10:14;;;;;;;9.17;4.47;;;23.60;40.30;;;;;;5054760;27;90454;-67
2022/05/08 09:12:43;;;;;;;9.60;4.47;;;23.60;40.20;;;;;;5050591;27;88513;-67
2022/05/08 09:15:23;;;;;;;7.20;4.93;;;23.60;40.20;;;;;;5052925;27;89499;-67
2022/05/08 09:17:52;;;;;;;8.10;4.87;;;23.50;40.10;;;;;;5040911;27;89497;-67
2022/05/08 09:20:26;;;;;;;8.77;4.20;;;23.50;40.10;;;;;;5051056;27;90093;-68
2022/05/08 09:23:04;;;;;;;7.30;4.73;;;23.50;40.10;;;;;;5054086;27;88670;-68
2022/05/08 09:25:49;;;;;;;10.77;4.80;;;23.50;40.00;;;;;;5054005;27;89787;-68
2022/05/08 09:28:33;;;;;;;6.80;4.57;;;23.60;40.10;;;;;;5051542;27;89633;-68
2022/05/08 09:31:04;;;;;;;7.40;3.50;;;23.60;40.00;;;;;;5046867;27;89595;-68
2022/05/08 09:33:34;;;;;;;6.83;3.70;;;23.60;40.00;;;;;;5048513;27;88493;-68
2022/05/08 09:36:04;;;;;;;8.33;3.53;;;23.60;40.00;;;;;;5053202;27;90110;-68
2022/05/08 09:38:53;;;;;;;7.47;3.20;;;23.60;40.00;;;;;;5049780;27;89901;-67
2022/05/08 09:41:22;;;;;;;5.63;2.73;;;23.50;39.90;;;;;;5050078;27;88639;-68
2022/05/08 09:43:53;;;;;;;3.97;2.50;;;23.50;40.00;;;;;;5049913;27;88695;-68
2022/05/08 09:46:23;;;;;;;6.37;2.97;;;23.50;39.90;;;;;;5054200;27;88445;-68
2022/05/08 09:48:51;;;;;;;4.57;2.57;;;23.40;39.80;;;;;;5056522;27;89352;-68
2022/05/08 09:51:21;;;;;;;6.47;2.87;;;23.50;40.00;;;;;;5054978;27;90919;-68
2022/05/08 09:53:52;;;;;;;6.13;2.53;;;23.50;39.90;;;;;;5043401;27;88533;-68
2022/05/08 09:56:20;;;;;;;3.63;1.90;;;23.50;40.60;;;;;;5057372;27;88633;-68
2022/05/08 09:58:48;;;;;;;4.60;1.83;;;23.40;39.80;;;;;;5061021;27;90710;-68
2022/05/08 10:01:16;;;;;;;5.63;2.17;;;23.40;39.90;;;;;;5059011;27;91182;-68
2022/05/08 10:03:46;;;;;;;2.20;1.73;;;23.40;39.90;;;;;;5055606;27;88540;-67
2022/05/08 10:06:14;;;;;;;3.67;1.20;;;23.50;39.90;;;;;;5054946;27;88994;-67
2022/05/08 10:08:43;;;;;;;2.70;1.07;;;23.50;39.90;;;;;;5058751;27;90280;-68
2022/05/08 10:14:00;;;;;;;1.60;1.37;;;23.50;39.90;;;;;;5061563;27;88582;-67
2022/05/08 10:16:50;;;;;;;4.23;1.70;;;23.50;39.90;;;;;;5055882;27;88680;-66
2022/05/08 10:19:48;;;;;;;3.77;1.47;;;23.40;39.90;;;;;;5045154;27;89861;-67
2022/05/08 10:22:16;;;;;;;1.83;1.30;;;23.40;39.90;;;;;;5047940;27;89005;-67
2022/05/08 10:24:51;;;;;;;2.43;1.57;;;23.50;40.00;;;;;;5051005;27;89000;-66
2022/05/08 10:27:24;;;;;;;3.83;1.73;;;23.50;40.00;;;;;;5056885;27;89143;-66
2022/05/08 10:30:20;;;;;;;8.63;2.10;;;23.60;40.10;;;;;;5055731;27;89803;-67
2022/05/08 10:32:51;;;;;;;4.27;2.37;;;23.50;40.00;;;;;;5054572;27;88513;-66
2022/05/08 10:35:22;;;;;;;3.07;1.60;;;23.50;39.90;;;;;;5058749;27;88604;-67
2022/05/08 10:37:50;;;;;;;6.13;2.17;;;23.50;39.90;;;;;;5058029;27;88383;-66
2022/05/08 10:40:36;;;;;;;4.33;1.70;;;23.50;39.90;;;;;;5059967;27;90575;-66
2022/05/08 10:43:26;;;;;;;7.20;1.97;;;23.50;40.10;;;;;;5039611;28;89568;-67
2022/05/08 10:45:54;;;;;;;4.13;1.87;;;23.60;40.40;;;;;;5041706;27;88551;-66
2022/05/08 10:48:25;;;;;;;2.83;1.77;;;23.60;40.40;;;;;;5043662;27;89550;-67
2022/05/08 10:50:55;;;;;;;3.93;2.40;;;23.70;40.50;;;;;;5041362;27;90883;-66
2022/05/08 10:53:27;;;;;;;3.73;2.07;;;23.70;40.60;;;;;;5041721;28;89453;-66
2022/05/08 10:56:04;;;;;;;7.97;2.00;;;23.70;40.60;;;;;;5041711;27;88520;-66
2022/05/08 10:58:32;;;;;;;6.30;2.20;;;23.70;40.60;;;;;;5037898;28;88620;-66
2022/05/08 11:01:02;;;;;;;8.80;2.13;;;23.80;40.60;;;;;;5042604;27;92108;-66
2022/05/08 11:03:30;;;;;;;3.83;2.50;;;23.80;40.60;;;;;;5047479;27;89466;-66
2022/05/08 11:05:59;;;;;;;6.50;2.97;;;23.80;40.50;;;;;;5052985;27;89040;-67
2022/05/08 11:08:29;;;;;;;5.37;2.60;;;23.80;40.40;;;;;;5054286;27;88463;-67
2022/05/08 11:10:58;;;;;;;6.93;3.00;;;23.80;40.40;;;;;;5054996;27;88370;-66
2022/05/08 11:13:27;;;;;;;5.60;2.47;;;23.80;40.40;;;;;;5040505;27;91626;-66
2022/05/08 11:15:55;;;;;;;3.97;2.10;;;23.70;40.20;;;;;;5057581;27;88507;-65
2022/05/08 11:18:24;;;;;;;10.60;4.07;;;23.70;40.20;;;;;;5055343;27;88685;-67
2022/05/08 11:20:57;;;;;;;5.57;3.10;;;23.70;40.30;;;;;;5049612;27;90626;-67
2022/05/08 11:23:27;;;;;;;7.03;3.83;;;23.80;40.40;;;;;;5057302;27;88707;-68
2022/05/08 11:25:56;;;;;;;5.73;3.13;;;23.80;40.30;;;;;;5057399;27;88542;-67
2022/05/08 11:28:24;;;;;;;7.83;2.83;;;23.90;40.20;;;;;;5054152;27;88652;-67
2022/05/08 11:30:54;;;;;;;8.97;3.60;;;23.80;40.10;;;;;;5054751;27;89711;-68
2022/05/08 11:36:23;;;;;;;5.40;2.40;;;23.80;39.90;;;;;;5054370;27;89314;-68
2022/05/08 11:38:55;;;;;;;6.53;3.23;;;23.80;39.80;;;;;;5051736;27;88563;-69
2022/05/08 11:41:24;;;;;;;8.27;3.20;;;23.80;39.70;;;;;;5055402;27;89816;-68
2022/05/08 11:43:53;;;;;;;7.87;2.83;;;23.80;39.60;;;;;;5054373;27;89125;-68
2022/05/08 11:46:32;;;;;;;3.07;2.10;;;23.80;39.50;;;;;;5051977;27;90018;-67
2022/05/08 11:49:00;;;;;;;5.30;1.80;;;23.80;39.50;;;;;;5057956;27;88509;-67
2022/05/08 11:51:39;;;;;;;4.80;1.90;;;23.80;39.40;;;;;;5058389;27;90753;-67
2022/05/08 11:54:20;;;;;;;3.20;1.57;;;23.70;39.20;;;;;;5051406;27;90058;-67
2022/05/08 11:56:51;;;;;;;4.23;1.40;;;23.70;39.10;;;;;;5051831;27;88508;-68
2022/05/08 11:59:20;;;;;;;3.93;1.30;;;23.60;39.00;;;;;;5055189;27;89427;-68
2022/05/08 12:01:49;;;;;;;2.30;1.30;;;23.50;39.00;;;;;;5057431;27;90028;-67
2022/05/08 12:04:26;;;;;;;1.53;1.27;;;23.50;38.90;;;;;;5056042;27;88950;-68
2022/05/08 12:07:00;;;;;;;5.73;1.20;;;23.50;38.90;;;;;;5055208;27;88533;-67
2022/05/08 12:09:29;;;;;;;1.07;0.87;;;23.50;38.80;;;;;;5051935;27;88922;-68
2022/05/08 12:11:58;;;;;;;2.37;1.17;;;23.50;39.40;;;;;;5055452;27;89560;-67
2022/05/08 12:14:32;;;;;;;3.83;1.10;;;23.50;38.70;;;;;;5054836;27;89004;-67
2022/05/08 12:17:01;;;;;;;3.37;1.10;;;23.40;38.50;;;;;;5056723;27;89135;-67
2022/05/08 12:19:29;;;;;;;2.50;1.20;;;23.40;38.50;;;;;;5056219;27;88700;-68
2022/05/08 12:21:57;;;;;;;4.43;1.30;;;23.40;38.50;;;;;;5054212;27;92872;-67
2022/05/08 12:24:26;;;;;;;5.07;1.60;;;23.40;38.40;;;;;;5055300;27;90179;-67
2022/05/08 12:26:55;;;;;;;3.90;1.67;;;23.50;38.40;;;;;;5048645;27;88598;-68
2022/05/08 12:29:23;;;;;;;1.57;1.10;;;23.50;38.40;;;;;;5048914;27;89308;-67
2022/05/08 12:31:55;;;;;;;2.20;1.37;;;23.60;38.40;;;;;;5053699;27;93125;-67
2022/05/08 12:34:24;;;;;;;1.53;1.40;;;23.60;38.30;;;;;;5038006;27;89116;-67
2022/05/08 12:36:53;;;;;;;2.10;1.40;;;23.60;38.30;;;;;;5037832;27;89060;-68
2022/05/08 12:39:24;;;;;;;3.13;1.40;;;23.50;38.20;;;;;;5051593;27;88603;-67
2022/05/08 12:41:52;;;;;;;0.93;0.70;;;23.60;38.20;;;;;;5053405;27;89692;-68
2022/05/08 12:44:22;;;;;;;1.10;0.73;;;23.60;38.20;;;;;;5039720;27;89999;-67
2022/05/08 12:46:50;;;;;;;2.37;1.20;;;23.60;38.10;;;;;;5040346;28;88382;-67
2022/05/08 12:49:18;;;;;;;6.73;1.17;;;23.60;38.00;;;;;;5039588;28;88653;-68
2022/05/08 12:51:46;;;;;;;0.40;0.40;;;23.60;38.70;;;;;;5039007;27;89221;-68
2022/05/08 12:54:14;;;;;;;4.07;0.97;;;23.50;37.90;;;;;;5036437;27;89120;-68
2022/05/08 12:56:44;;;;;;;4.73;1.20;;;23.50;37.90;;;;;;5037387;27;88555;-67
2022/05/08 13:01:59;;;;;;;2.53;1.00;;;23.50;37.90;;;;;;5042115;27;89511;-67
2022/05/08 13:04:29;;;;;;;1.57;1.00;;;23.60;37.90;;;;;;5036420;27;90246;-67
2022/05/08 13:06:57;;;;;;;1.20;1.10;;;23.50;38.00;;;;;;5039338;27;88579;-68
2022/05/08 13:09:25;;;;;;;2.20;1.20;;;23.50;38.00;;;;;;5040334;27;88866;-68
2022/05/08 13:11:53;;;;;;;2.07;0.87;;;23.50;38.10;;;;;;5045921;27;89917;-68
2022/05/08 13:14:22;;;;;;;3.67;1.20;;;23.60;38.20;;;;;;5047969;27;89994;-67
2022/05/08 13:16:50;;;;;;;2.53;1.20;;;23.70;38.30;;;;;;5039545;27;88561;-70
2022/05/08 13:19:21;;;;;;;2.60;1.27;;;23.80;38.40;;;;;;5039266;28;88590;-66
2022/05/08 13:21:49;;;;;;;3.93;1.37;;;23.80;38.40;;;;;;5054779;27;90697;-66
2022/05/08 13:24:18;;;;;;;2.00;1.30;;;23.80;38.20;;;;;;5058896;27;89399;-66
2022/05/08 13:26:46;;;;;;;2.93;1.30;;;23.90;38.90;;;;;;5041969;27;88361;-66
2022/05/08 13:29:14;;;;;;;2.87;1.03;;;23.90;38.20;;;;;;5038780;27;88560;-66
2022/05/08 13:31:42;;;;;;;1.37;1.10;;;23.90;38.10;;;;;;5042747;28;91359;-66
2022/05/08 13:34:11;;;;;;;5.97;1.33;;;24.00;38.70;;;;;;5042542;27;89170;-66
2022/05/08 13:36:40;;;;;;;2.67;1.47;;;24.00;37.90;;;;;;5040862;27;88442;-66
2022/05/08 13:39:08;;;;;;;3.93;1.30;;;24.00;37.90;;;;;;5056896;27;88601;-67
2022/05/08 13:41:36;;;;;;;2.97;1.30;;;24.00;37.80;;;;;;5053456;27;90297;-67
2022/05/08 13:44:05;;;;;;;1.53;1.43;;;24.00;37.80;;;;;;5059323;27;89365;-66
2022/05/08 13:46:34;;;;;;;3.03;1.00;;;24.00;37.80;;;;;;5059793;27;88558;-67
2022/05/08 13:49:03;;;;;;;4.20;1.67;;;24.00;37.80;;;;;;5058440;27;88462;-67
2022/05/08 13:51:31;;;;;;;4.77;1.53;;;24.10;37.90;;;;;;5056732;27;90987;-67
2022/05/08 13:54:02;;;;;;;2.10;1.30;;;24.10;38.00;;;;;;5058182;27;90037;-67
2022/05/08 13:56:33;;;;;;;3.00;1.37;;;24.20;38.00;;;;;;5058061;27;90141;-67
2022/05/08 13:59:03;;;;;;;2.80;1.23;;;24.30;38.00;;;;;;5057016;27;88676;-70
2022/05/08 14:01:31;;;;;;;2.07;1.13;;;24.30;37.90;;;;;;5053554;27;89531;-66
2022/05/08 14:03:59;;;;;;;3.20;1.57;;;24.30;37.90;;;;;;5053518;27;91058;-66
2022/05/08 14:06:28;;;;;;;0.67;0.67;;;24.30;37.90;;;;;;5058607;27;88534;-67
2022/05/08 14:08:56;;;;;;;1.93;1.00;;;24.30;37.80;;;;;;5055404;27;89531;-67
2022/05/08 14:11:25;;;;;;;4.20;1.20;;;24.40;37.80;;;;;;5059472;27;89491;-67
2022/05/08 14:13:53;;;;;;;3.20;1.40;;;24.40;37.80;;;;;;5056839;27;88986;-67
2022/05/08 14:16:24;;;;;;;3.43;1.50;;;24.40;37.80;;;;;;5048937;27;88568;-67
2022/05/08 14:18:52;;;;;;;2.30;1.50;;;24.40;37.70;;;;;;5042817;27;88553;-67
2022/05/08 14:21:20;;;;;;;3.90;1.63;;;24.40;38.30;;;;;;5058198;27;90614;-66
2022/05/08 14:23:48;;;;;;;3.80;1.70;;;24.40;37.60;;;;;;5062394;27;88886;-67
2022/05/08 14:26:16;;;;;;;4.50;1.97;;;24.40;37.50;;;;;;5055497;27;88495;-67
2022/05/08 14:28:45;;;;;;;4.53;1.83;;;24.50;37.60;;;;;;5058905;27;88604;-67
2022/05/08 14:36:45;;;;;;;4.20;2.13;;;24.60;37.50;;;;;;5059701;27;88624;-67
2022/05/08 14:39:13;;;;;;;4.57;2.60;;;24.60;37.40;;;;;;5060311;27;89202;-67
2022/05/08 14:41:41;;;;;;;6.97;3.03;;;24.60;37.30;;;;;;5058077;27;90574;-67
2022/05/08 14:44:11;;;;;;;5.30;2.47;;;24.60;37.30;;;;;;5051022;27;89350;-67
2022/05/08 14:46:39;;;;;;;6.47;3.50;;;24.70;37.30;;;;;;5054561;27;88522;-67
2022/05/08 14:49:08;;;;;;;6.03;3.17;;;24.70;37.40;;;;;;5055287;27;88726;-68
2022/05/08 14:51:36;;;;;;;4.23;2.30;;;24.80;37.40;;;;;;5054989;27;90874;-67
2022/05/08 14:54:04;;;;;;;4.40;3.27;;;24.80;37.30;;;;;;5044588;27;89433;-67
2022/05/08 14:56:33;;;;;;;7.73;4.00;;;24.80;37.10;;;;;;5044177;27;88714;-66
2022/05/08 14:59:01;;;;;;;10.80;4.57;;;24.80;37.20;;;;;;5056136;27;88379;-67
2022/05/08 15:01:31;;;;;;;6.23;3.70;;;24.80;37.20;;;;;;5061682;27;93401;-67
2022/05/08 15:03:59;;;;;;;4.80;2.97;;;24.80;37.00;;;;;;5062202;27;89287;-67
2022/05/08 15:06:27;;;;;;;7.00;3.97;;;24.90;37.00;;;;;;5053200;27;88408;-67
2022/05/08 15:08:55;;;;;;;6.93;4.00;;;24.80;36.90;;;;;;5042043;28;88520;-67
2022/05/08 15:11:23;;;;;;;7.97;3.97;;;24.80;37.00;;;;;;5041738;27;93509;-67
2022/05/08 15:13:51;;;;;;;4.97;3.70;;;24.90;37.10;;;;;;5041711;27;90072;-67
2022/05/08 15:16:19;;;;;;;4.87;2.83;;;24.90;37.10;;;;;;5044431;27;88293;-67
2022/05/08 15:18:51;;;;;;;4.67;3.00;;;24.90;37.00;;;;;;5056858;27;88644;-67
2022/05/08 15:21:20;;;;;;;6.17;2.70;;;24.90;37.50;;;;;;5058178;27;91065;-67
2022/05/08 15:23:49;;;;;;;3.23;2.63;;;24.90;36.70;;;;;;5059160;27;89943;-67
2022/05/08 15:26:17;;;;;;;3.13;2.80;;;24.80;36.60;;;;;;5061732;27;88802;-67
2022/05/08 15:28:45;;;;;;;4.70;3.10;;;24.80;36.60;;;;;;5058127;27;89362;-67
2022/05/08 15:31:14;;;;;;;5.97;2.37;;;24.80;36.40;;;;;;5040522;28;94107;-67
2022/05/08 15:33:42;;;;;;;3.10;2.40;;;24.70;36.30;;;;;;5054556;27;89065;-67
2022/05/08 15:36:11;;;;;;;4.83;2.43;;;24.70;36.30;;;;;;5054242;27;88525;-67
2022/05/08 15:38:40;;;;;;;3.87;2.50;;;24.70;36.20;;;;;;5047277;27;88637;-67
2022/05/08 15:41:08;;;;;;;3.30;2.40;;;24.70;36.20;;;;;;5052278;27;89873;-67
2022/05/08 15:43:37;;;;;;;9.10;2.77;;;24.70;36.10;;;;;;5055356;27;89975;-67
2022/05/08 15:46:05;;;;;;;3.60;2.00;;;24.70;36.00;;;;;;5056323;27;88536;-67
2022/05/08 15:48:33;;;;;;;10.77;2.70;;;24.70;36.00;;;;;;5047830;27;88530;-67
2022/05/08 15:51:01;;;;;;;5.37;2.97;;;24.70;35.80;;;;;;5058074;27;90078;-67
2022/05/08 15:53:31;;;;;;;4.30;2.20;;;24.70;35.80;;;;;;5038739;27;89770;-67
2022/05/08 15:56:02;;;;;;;4.57;2.60;;;24.60;35.70;;;;;;5052195;27;88459;-67
2022/05/08 15:58:31;;;;;;;5.20;2.23;;;24.70;35.70;;;;;;5048032;27;88307;-67
2022/05/08 16:00:59;;;;;;;3.63;2.67;;;24.70;35.70;;;;;;5041028;27;90680;-67
2022/05/08 16:03:27;;;;;;;3.13;2.57;;;24.70;35.70;;;;;;5040091;27;89862;-67
2022/05/08 16:05:55;;;;;;;3.03;2.30;;;24.80;35.80;;;;;;5041046;27;88358;-67
2022/05/08 16:08:44;;;;;;;4.27;1.87;;;24.90;35.80;;;;;;5050081;27;88564;-67
2022/05/08 16:11:12;;;;;;;5.33;1.93;;;24.90;35.70;;;;;;5060809;27;90680;-67
2022/05/08 16:24:46;;;;;;;4.00;2.50;;;24.80;35.50;;;;;;5040678;27;89474;-67
2022/05/08 16:27:15;;;;;;;2.07;1.70;;;24.90;35.50;;;;;;5039508;27;89259;-67
2022/05/08 16:29:43;;;;;;;3.10;1.87;;;24.90;35.40;;;;;;5039590;27;89429;-67
2022/05/08 16:32:11;;;;;;;4.77;1.60;;;24.90;35.30;;;;;;5038173;28;90667;-67
2022/05/08 16:34:39;;;;;;;2.80;1.87;;;24.90;35.30;;;;;;5041266;28;89590;-67
2022/05/08 16:37:07;;;;;;;3.90;2.03;;;24.90;35.30;;;;;;5041491;27;88645;-67
2022/05/08 16:39:35;;;;;;;1.80;1.23;;;24.90;35.40;;;;;;5055376;27;88557;-67
2022/05/08 16:42:05;;;;;;;2.97;1.37;;;25.00;35.30;;;;;;5056734;27;89846;-67
2022/05/08 16:44:35;;;;;;;3.10;1.87;;;24.90;35.20;;;;;;5059240;27;89959;-67
2022/05/08 16:47:04;;;;;;;4.30;1.80;;;25.00;35.20;;;;;;5038968;27;88426;-67
2022/05/08 16:49:32;;;;;;;1.70;1.50;;;25.00;35.20;;;;;;5040093;27;88562;-67
2022/05/08 16:52:00;;;;;;;5.17;1.57;;;25.00;35.20;;;;;;5039821;27;90334;-67
2022/05/08 16:54:31;;;;;;;4.57;1.93;;;25.00;35.20;;;;;;5041080;27;92615;-67
2022/05/08 16:56:59;;;;;;;2.93;1.63;;;25.10;35.30;;;;;;5046856;27;88407;-67
2022/05/08 16:59:29;;;;;;;3.33;1.90;;;25.10;35.20;;;;;;5039645;28;89964;-67
2022/05/08 17:01:57;;;;;;;1.40;1.30;;;25.00;35.10;;;;;;5046586;27;89480;-67
2022/05/08 17:04:27;;;;;;;3.40;1.73;;;25.00;35.10;;;;;;5049459;27;88724;-67
2022/05/08 17:06:55;;;;;;;3.13;1.50;;;24.90;35.00;;;;;;5055802;27;88484;-67
2022/05/08 17:09:23;;;;;;;3.03;1.50;;;24.90;35.10;;;;;;5051750;27;89018;-67
2022/05/08 17:11:51;;;;;;;2.70;1.73;;;24.90;35.10;;;;;;5055026;27;90648;-67
2022/05/08 17:14:19;;;;;;;2.33;1.10;;;24.90;35.10;;;;;;5057254;27;90278;-67
2022/05/08 17:16:48;;;;;;;4.73;1.70;;;25.00;35.10;;;;;;5058937;27;88363;-67
2022/05/08 17:19:16;;;;;;;2.03;1.47;;;25.00;35.10;;;;;;5053228;27;88572;-67
2022/05/08 17:21:46;;;;;;;3.73;2.17;;;25.00;35.10;;;;;;5052928;27;89586;-67
2022/05/08 17:24:15;;;;;;;5.00;1.90;;;25.00;35.10;;;;;;5057657;27;89987;-67
2022/05/08 17:29:28;;;;;;;3.17;1.57;;;25.00;35.10;;;;;;5048448;27;88482;-67
2022/05/08 17:31:58;;;;;;;2.83;1.57;;;25.00;35.20;;;;;;5056785;27;89679;-67
2022/05/08 17:34:26;;;;;;;2.57;1.57;;;25.00;35.20;;;;;;5054276;27;89174;-67
2022/05/08 17:36:54;;;;;;;2.17;1.43;;;25.10;35.30;;;;;;5057667;27;88660;-67
2022/05/08 17:39:22;;;;;;;3.57;1.90;;;25.00;35.20;;;;;;5050810;27;88590;-67
2022/05/08 17:41:50;;;;;;;1.80;1.63;;;25.00;35.20;;;;;;5055266;27;93519;-67
2022/05/08 17:44:19;;;;;;;3.23;1.87;;;25.10;36.00;;;;;;5052690;27;90013;-67
2022/05/08 17:46:47;;;;;;;3.23;1.50;;;25.00;35.30;;;;;;5055471;27;88287;-67
2022/05/08 17:49:19;;;;;;;2.47;1.77;;;25.00;35.30;;;;;;5054612;27;88649;-67
2022/05/08 17:51:47;;;;;;;3.40;2.00;;;25.00;35.30;;;;;;5047690;27;91112;-67
2022/05/08 17:54:15;;;;;;;5.13;1.53;;;25.00;35.30;;;;;;5054017;27;89988;-67
2022/05/08 17:56:43;;;;;;;2.93;1.70;;;24.90;35.30;;;;;;5056017;27;89090;-67
2022/05/08 17:59:11;;;;;;;1.83;1.53;;;25.00;35.40;;;;;;5056751;27;88579;-67
2022/05/08 18:01:40;;;;;;;2.73;1.60;;;24.90;35.30;;;;;;5041876;27;90899;-67
2022/05/08 18:06:55;;;;;;;3.47;1.70;;;24.90;35.40;;;;;;5038514;28;88595;-67
2022/05/08 18:09:23;;;;;;;3.13;1.93;;;24.90;35.50;;;;;;5039413;27;88432;-67
2022/05/08 18:11:53;;;;;;;2.67;1.73;;;24.80;35.50;;;;;;5035709;28;89560;-67
2022/05/08 18:14:22;;;;;;;5.57;1.90;;;24.90;36.20;;;;;;5038515;27;89145;-67
2022/05/08 18:16:50;;;;;;;2.87;1.53;;;24.80;35.60;;;;;;5051453;27;88562;-67
2022/05/08 18:19:21;;;;;;;3.77;2.20;;;24.80;35.60;;;;;;5061450;27;88406;-67
2022/05/08 18:21:49;;;;;;;3.53;1.63;;;24.70;35.60;;;;;;5062089;27;90710;-67
2022/05/08 18:24:19;;;;;;;3.80;1.73;;;24.70;35.60;;;;;;5043853;27;91930;-67
2022/05/08 18:26:47;;;;;;;3.57;2.13;;;24.70;35.70;;;;;;5040197;28;88410;-68
2022/05/08 18:29:15;;;;;;;5.37;1.83;;;24.70;35.70;;;;;;5037863;27;88727;-67
2022/05/08 18:31:43;;;;;;;2.13;1.33;;;24.70;35.80;;;;;;5054169;27;90581;-67
2022/05/08 18:34:11;;;;;;;5.53;2.10;;;24.60;35.80;;;;;;5051499;27;88830;-67
2022/05/08 18:36:39;;;;;;;1.50;1.33;;;24.60;35.80;;;;;;5049694;27;88541;-67
2022/05/08 18:39:07;;;;;;;4.10;1.83;;;24.60;35.80;;;;;;5055938;27;88581;-67
2022/05/08 18:41:36;;;;;;;1.50;1.30;;;24.60;35.80;;;;;;5060946;27;89319;-67
2022/05/08 18:44:08;;;;;;;4.17;1.27;;;24.60;35.90;;;;;;5050851;27;88812;-67
2022/05/08 18:46:36;;;;;;;2.97;1.70;;;24.60;35.90;;;;;;5055213;27;88972;-67
2022/05/08 18:49:23;;;;;;;6.20;1.70;;;24.50;35.80;;;;;;5053537;27;88910;-67
2022/05/08 18:51:52;;;;;;;2.57;1.40;;;24.50;35.80;;;;;;5058801;27;90693;-67